Time,TemperatureF,DewpointF,PressureIn,WindDirection,WindDirectionDegrees,WindSpeedMPH,WindSpeedGustMPH,Humidity,HourlyPrecipIn,Conditions,Clouds,dailyrainin,SolarRadiationWatts/m^2,SoftwareType,DateUTC
2013-02-18 00:10:00,44.7,34.0,29.48,SSE,153,1.0,12.0,66,0.00,,,0.00,0,Wunderground v.1.15,2013-02-18 06:10:00,
2013-02-18 00:19:00,44.4,33.7,29.48,SSE,161,1.0,12.0,66,0.00,,,0.00,0,Wunderground v.1.15,2013-02-18 06:19:00,
2013-02-18 00:25:00,44.3,34.0,29.48,SSE,165,1.0,12.0,67,0.00,,,0.00,0,Wunderground v.1.15,2013-02-18 06:25:00,
2013-02-18 00:35:00,44.0,33.7,29.47,SSE,165,0.0,12.0,67,0.00,,,0.00,0,Wunderground v.1.15,2013-02-18 06:35:00,
2013-02-18 00:45:00,43.8,33.6,29.47,SSE,165,0.0,12.0,67,0.00,,,0.00,0,Wunderground v.1.15,2013-02-18 06:45:00,
2013-02-18 00:54:00,43.5,33.6,29.47,SSE,165,0.0,12.0,68,0.00,,,0.00,0,Wunderground v.1.15,2013-02-18 06:54:00,
2013-02-18 01:05:00,43.1,33.6,29.47,SSE,163,0.0,12.0,69,0.00,,,0.00,0,Wunderground v.1.15,2013-02-18 07:05:00,
2013-02-18 01:15:00,43.0,33.5,29.46,SSE,164,1.0,12.0,69,0.00,,,0.00,0,Wunderground v.1.15,2013-02-18 07:15:00,
2013-02-18 01:24:00,42.7,33.6,29.46,SSE,164,0.0,12.0,70,0.00,,,0.00,0,Wunderground v.1.15,2013-02-18 07:24:00,
2013-02-18 01:35:00,42.5,33.4,29.46,SSE,165,0.0,12.0,70,0.00,,,0.00,0,Wunderground v.1.15,2013-02-18 07:35:00,
2013-02-18 01:40:00,42.1,33.0,29.46,SSE,165,0.0,12.0,70,0.00,,,0.00,0,Wunderground v.1.15,2013-02-18 07:40:00,
2013-02-18 01:49:00,41.3,33.0,29.47,NW,306,3.0,12.0,72,0.00,,,0.00,0,Wunderground v.1.15,2013-02-18 07:49:00,
2013-02-18 01:54:00,41.2,32.9,29.47,NW,319,3.0,12.0,72,0.00,,,0.00,0,Wunderground v.1.15,2013-02-18 07:54:00,
2013-02-18 02:05:00,41.0,33.0,29.50,NW,315,1.0,12.0,73,0.00,,,0.00,0,Wunderground v.1.15,2013-02-18 08:05:00,
2013-02-18 02:15:00,40.6,33.0,29.49,NW,315,0.0,12.0,74,0.00,,,0.00,0,Wunderground v.1.15,2013-02-18 08:15:00,
2013-02-18 02:24:00,40.1,32.8,29.49,NW,315,0.0,12.0,75,0.00,,,0.00,0,Wunderground v.1.15,2013-02-18 08:24:00,
2013-02-18 02:30:00,39.9,32.6,29.49,NW,315,0.0,12.0,75,0.00,,,0.00,0,Wunderground v.1.15,2013-02-18 08:30:00,
2013-02-18 02:40:00,39.7,32.8,29.49,NW,315,0.0,12.0,76,0.00,,,0.00,0,Wunderground v.1.15,2013-02-18 08:40:00,
2013-02-18 02:50:00,39.4,32.5,29.47,NW,315,0.0,12.0,76,0.00,,,0.00,0,Wunderground v.1.15,2013-02-18 08:50:00,
2013-02-18 02:59:00,38.7,32.1,29.47,NW,315,0.0,12.0,77,0.00,,,0.00,0,Wunderground v.1.15,2013-02-18 08:59:00,
2013-02-18 03:05:00,38.3,31.7,29.47,NW,315,0.0,12.0,77,0.00,,,0.00,0,Wunderground v.1.15,2013-02-18 09:05:00,
2013-02-18 03:15:00,37.5,31.3,29.47,NW,315,0.0,12.0,78,0.00,,,0.00,0,Wunderground v.1.15,2013-02-18 09:15:00,
2013-02-18 03:25:00,36.9,31.0,29.47,NW,315,0.0,12.0,79,0.00,,,0.00,0,Wunderground v.1.15,2013-02-18 09:25:00,
2013-02-18 03:35:00,37.2,31.6,29.47,NNW,335,1.0,2.0,80,0.00,,,0.00,0,Wunderground v.1.15,2013-02-18 09:35:00,
2013-02-18 03:45:00,37.3,31.7,29.47,NNW,340,1.0,12.0,80,0.00,,,0.00,0,Wunderground v.1.15,2013-02-18 09:45:00,
2013-02-18 03:50:00,37.3,31.7,29.47,NNW,333,0.0,12.0,80,0.00,,,0.00,0,Wunderground v.1.15,2013-02-18 09:50:00,
2013-02-18 04:00:00,37.7,32.1,29.47,North,360,2.0,12.0,80,0.00,,,0.00,0,Wunderground v.1.15,2013-02-18 10:00:00,
2013-02-18 04:05:00,38.0,32.4,29.47,North,5,2.0,12.0,80,0.00,,,0.00,0,Wunderground v.1.15,2013-02-18 10:05:00,
2013-02-18 04:10:00,38.2,32.6,29.47,North,11,2.0,2.0,80,0.00,,,0.00,0,Wunderground v.1.15,2013-02-18 10:10:00,
2013-02-18 04:20:00,38.4,32.5,29.48,NNW,343,1.0,12.0,79,0.00,,,0.00,0,Wunderground v.1.15,2013-02-18 10:20:00,
2013-02-18 04:25:00,38.5,32.6,29.48,North,5,2.0,12.0,79,0.00,,,0.00,0,Wunderground v.1.15,2013-02-18 10:25:00,
2013-02-18 04:35:00,38.9,32.6,29.48,North,5,3.0,12.0,78,0.00,,,0.00,0,Wunderground v.1.15,2013-02-18 10:35:00,
2013-02-18 04:45:00,39.3,33.0,29.48,NNE,17,5.0,6.0,78,0.00,,,0.00,0,Wunderground v.1.15,2013-02-18 10:45:00,
2013-02-18 04:55:00,39.6,33.0,29.48,North,355,6.0,6.0,77,0.00,,,0.00,0,Wunderground v.1.15,2013-02-18 10:55:00,
2013-02-18 05:00:00,39.6,33.0,29.48,NNW,329,6.0,10.0,77,0.00,,,0.00,0,Wunderground v.1.15,2013-02-18 11:00:00,
2013-02-18 05:09:00,39.6,33.0,29.48,North,355,8.0,8.0,77,0.00,,,0.00,0,Wunderground v.1.15,2013-02-18 11:09:00,
2013-02-18 05:14:00,39.6,33.0,29.48,NNW,348,8.0,8.0,77,0.00,,,0.00,0,Wunderground v.1.15,2013-02-18 11:14:00,
2013-02-18 05:25:00,39.6,33.0,29.48,North,360,8.0,14.0,77,0.00,,,0.00,0,Wunderground v.1.15,2013-02-18 11:25:00,
2013-02-18 05:35:00,39.8,33.2,29.48,NNW,346,9.0,12.0,77,0.00,,,0.00,0,Wunderground v.1.15,2013-02-18 11:35:00,
2013-02-18 05:45:00,39.7,33.1,29.48,NNE,16,8.0,12.0,77,0.00,,,0.00,0,Wunderground v.1.15,2013-02-18 11:45:00,
2013-02-18 05:54:00,39.7,33.1,29.48,NNE,19,8.0,12.0,77,0.00,,,0.00,0,Wunderground v.1.15,2013-02-18 11:54:00,
2013-02-18 06:00:00,39.6,33.0,29.50,North,5,7.0,12.0,77,0.00,,,0.00,0,Wunderground v.1.15,2013-02-18 12:00:00,
2013-02-18 06:10:00,39.3,32.7,29.50,North,349,8.0,8.0,77,0.00,,,0.00,0,Wunderground v.1.15,2013-02-18 12:10:00,
2013-02-18 06:19:00,39.0,32.7,29.52,NNW,330,4.0,12.0,78,0.00,,,0.00,0,Wunderground v.1.15,2013-02-18 12:19:00,
2013-02-18 06:24:00,38.8,32.5,29.52,North,351,4.0,12.0,78,0.00,,,0.00,0,Wunderground v.1.15,2013-02-18 12:24:00,
2013-02-18 06:30:00,38.6,32.3,29.53,North,360,4.0,4.0,78,0.00,,,0.00,0,Wunderground v.1.15,2013-02-18 12:30:00,
2013-02-18 06:40:00,38.1,32.2,29.53,NNE,15,2.0,12.0,79,0.00,,,0.00,0,Wunderground v.1.15,2013-02-18 12:40:00,
2013-02-18 06:49:00,37.7,32.1,29.53,NNW,346,2.0,12.0,80,0.00,,,0.00,0,Wunderground v.1.15,2013-02-18 12:49:00,
2013-02-18 06:59:00,37.4,31.8,29.53,NNW,342,5.0,5.0,80,0.00,,,0.00,0,Wunderground v.1.15,2013-02-18 12:59:00,
2013-02-18 07:05:00,37.4,31.8,29.53,NNW,345,6.0,6.0,80,0.00,,,0.00,0,Wunderground v.1.15,2013-02-18 13:05:00,
2013-02-18 07:15:00,37.3,31.7,29.54,NW,324,6.0,8.0,80,0.00,,,0.00,0,Wunderground v.1.15,2013-02-18 13:15:00,
2013-02-18 07:24:00,37.1,31.5,29.54,North,5,4.0,6.0,80,0.00,,,0.00,11,Wunderground v.1.15,2013-02-18 13:24:00,
2013-02-18 07:29:00,37.1,31.5,29.56,NNW,339,3.0,3.0,80,0.00,,,0.00,16,Wunderground v.1.15,2013-02-18 13:29:00,
2013-02-18 07:35:00,37.0,31.7,29.56,North,355,3.0,12.0,81,0.00,,,0.00,23,Wunderground v.1.15,2013-02-18 13:35:00,
2013-02-18 07:40:00,37.1,31.8,29.56,North,11,4.0,12.0,81,0.00,,,0.00,30,Wunderground v.1.15,2013-02-18 13:40:00,
2013-02-18 07:50:00,37.2,31.6,29.56,North,5,5.0,5.0,80,0.00,,,0.00,47,Wunderground v.1.15,2013-02-18 13:50:00,
2013-02-18 07:59:00,37.3,31.7,29.56,North,355,3.0,12.0,80,0.00,,,0.00,65,Wunderground v.1.15,2013-02-18 13:59:00,
2013-02-18 08:10:00,37.5,31.9,29.56,North,360,3.0,12.0,80,0.00,,,0.00,49,Wunderground v.1.15,2013-02-18 14:10:00,
2013-02-18 08:20:00,37.6,32.0,29.57,NNW,348,2.0,12.0,80,0.00,,,0.00,35,Wunderground v.1.15,2013-02-18 14:20:00,
2013-02-18 08:29:00,37.5,31.9,29.58,NNW,346,3.0,3.0,80,0.00,,,0.00,32,Wunderground v.1.15,2013-02-18 14:29:00,
2013-02-18 08:40:00,37.5,31.9,29.58,NNW,348,1.0,12.0,80,0.00,,,0.00,42,Wunderground v.1.15,2013-02-18 14:40:00,
2013-02-18 08:45:00,37.5,31.9,29.58,NNW,344,2.0,12.0,80,0.00,,,0.00,35,Wunderground v.1.15,2013-02-18 14:45:00,
2013-02-18 08:54:00,37.5,31.9,29.58,NNW,340,3.0,12.0,80,0.00,,,0.00,30,Wunderground v.1.15,2013-02-18 14:54:00,
2013-02-18 08:59:00,37.5,31.9,29.59,NNW,338,2.0,2.0,80,0.00,,,0.00,32,Wunderground v.1.15,2013-02-18 14:59:00,
2013-02-18 09:10:00,37.4,31.8,29.59,NNW,334,3.0,12.0,80,0.00,,,0.00,40,Wunderground v.1.15,2013-02-18 15:10:00,
2013-02-18 09:15:00,37.3,31.7,29.59,WNW,302,4.0,12.0,80,0.00,,,0.00,42,Wunderground v.1.15,2013-02-18 15:15:00,
2013-02-18 09:20:00,37.3,31.7,29.59,NW,316,4.0,12.0,80,0.00,,,0.00,44,Wunderground v.1.15,2013-02-18 15:20:00,
2013-02-18 09:30:00,37.5,31.6,29.60,NNW,340,5.0,12.0,79,0.00,,,0.00,54,Wunderground v.1.15,2013-02-18 15:30:00,
2013-02-18 09:39:00,37.8,31.2,29.60,NNW,334,7.0,7.0,77,0.00,,,0.00,81,Wunderground v.1.15,2013-02-18 15:39:00,
2013-02-18 09:45:00,37.9,30.7,29.61,North,349,8.0,8.0,75,0.00,,,0.00,93,Wunderground v.1.15,2013-02-18 15:45:00,
2013-02-18 09:55:00,38.1,30.9,29.61,NNW,334,5.0,9.0,75,0.00,,,0.00,62,Wunderground v.1.15,2013-02-18 15:55:00,
2013-02-18 10:05:00,37.9,30.7,29.61,NNW,342,9.0,12.0,75,0.00,,,0.00,88,Wunderground v.1.15,2013-02-18 16:05:00,
2013-02-18 10:14:00,37.9,30.7,29.61,NNE,13,10.0,12.0,75,0.00,,,0.00,58,Wunderground v.1.15,2013-02-18 16:14:00,
2013-02-18 10:19:00,37.8,30.6,29.61,NNW,348,10.0,14.0,75,0.00,,,0.00,54,Wunderground v.1.15,2013-02-18 16:19:00,
2013-02-18 10:25:00,37.6,30.4,29.61,NNW,342,10.0,14.0,75,0.00,,,0.00,51,Wunderground v.1.15,2013-02-18 16:25:00,
2013-02-18 10:30:00,37.3,30.4,29.62,NW,322,10.0,16.0,76,0.00,,,0.00,62,Wunderground v.1.15,2013-02-18 16:30:00,
2013-02-18 10:40:00,36.0,30.1,29.62,NW,310,12.0,12.0,79,0.00,,,0.00,58,Wunderground v.1.15,2013-02-18 16:40:00,
2013-02-18 10:45:00,34.8,29.6,29.64,NNW,347,12.0,12.0,81,0.00,,,0.00,63,Wunderground v.1.15,2013-02-18 16:45:00,
2013-02-18 10:54:00,33.5,29.5,29.64,North,5,10.0,13.0,85,0.00,,,0.00,49,Wunderground v.1.15,2013-02-18 16:54:00,
2013-02-18 11:00:00,33.2,29.5,29.66,NW,325,9.0,9.0,86,0.00,,,0.00,37,Wunderground v.1.15,2013-02-18 17:00:00,
2013-02-18 11:10:00,32.6,29.4,29.66,NW,314,7.0,12.0,88,0.00,,,0.00,74,Wunderground v.1.15,2013-02-18 17:10:00,
2013-02-18 11:20:00,32.1,29.2,29.67,North,349,8.0,12.0,89,0.00,,,0.00,88,Wunderground v.1.15,2013-02-18 17:20:00,
2013-02-18 11:30:00,32.0,29.4,29.67,NNW,342,7.0,12.0,90,0.00,,,0.00,83,Wunderground v.1.15,2013-02-18 17:30:00,
2013-02-18 11:39:00,31.5,28.6,29.67,North,5,11.0,20.0,89,0.00,,,0.00,102,Wunderground v.1.15,2013-02-18 17:39:00,
2013-02-18 11:45:00,31.4,28.3,29.69,NNW,336,12.0,20.0,88,0.00,,,0.00,81,Wunderground v.1.15,2013-02-18 17:45:00,
2013-02-18 11:55:00,31.4,27.7,29.69,NNW,337,10.0,14.0,86,0.00,,,0.00,142,Wunderground v.1.15,2013-02-18 17:55:00,
2013-02-18 12:00:00,31.3,27.3,29.69,North,355,11.0,19.0,85,0.00,,,0.00,114,Wunderground v.1.15,2013-02-18 18:00:00,
2013-02-18 12:10:00,31.2,26.6,29.69,NW,321,11.0,11.0,83,0.00,,,0.00,100,Wunderground v.1.15,2013-02-18 18:10:00,
2013-02-18 12:19:00,31.0,25.9,29.70,NW,309,10.0,10.0,81,0.00,,,0.00,204,Wunderground v.1.15,2013-02-18 18:19:00,
2013-02-18 12:24:00,31.2,25.4,29.70,NNE,25,9.0,12.0,79,0.00,,,0.00,229,Wunderground v.1.15,2013-02-18 18:24:00,
2013-02-18 12:30:00,31.2,25.1,29.70,NNW,344,10.0,10.0,78,0.00,,,0.00,193,Wunderground v.1.15,2013-02-18 18:30:00,
2013-02-18 12:40:00,30.6,24.2,29.70,NW,304,12.0,12.0,77,0.00,,,0.00,134,Wunderground v.1.15,2013-02-18 18:40:00,
2013-02-18 12:49:00,30.2,23.9,29.71,NW,316,12.0,12.0,77,0.00,,,0.01,123,Wunderground v.1.15,2013-02-18 18:49:00,
2013-02-18 12:59:00,29.7,23.1,29.72,NW,304,12.0,14.0,76,0.00,,,0.01,165,Wunderground v.1.15,2013-02-18 18:59:00,
2013-02-18 13:05:00,29.6,23.3,29.72,North,355,12.0,20.0,77,0.00,,,0.01,197,Wunderground v.1.15,2013-02-18 19:05:00,
2013-02-18 13:15:00,29.5,22.6,29.72,NW,311,11.0,12.0,75,0.00,,,0.01,290,Wunderground v.1.15,2013-02-18 19:15:00,
2013-02-18 13:25:00,29.3,22.0,29.72,NW,324,14.0,19.0,74,0.00,,,0.01,262,Wunderground v.1.15,2013-02-18 19:25:00,
2013-02-18 13:30:00,29.4,22.1,29.73,NW,305,13.0,17.0,74,0.00,,,0.01,211,Wunderground v.1.15,2013-02-18 19:30:00,
2013-02-18 13:39:00,29.2,21.9,29.73,WNW,302,12.0,12.0,74,0.00,,,0.01,149,Wunderground v.1.15,2013-02-18 19:39:00,
2013-02-18 13:44:00,29.2,21.9,29.74,NW,313,10.0,12.0,74,0.00,,,0.01,158,Wunderground v.1.15,2013-02-18 19:44:00,
2013-02-18 13:50:00,28.9,21.3,29.74,NW,311,12.0,16.0,73,0.00,,,0.01,132,Wunderground v.1.15,2013-02-18 19:50:00,
2013-02-18 14:00:00,28.6,21.0,29.75,WNW,298,13.0,17.0,73,0.00,,,0.01,186,Wunderground v.1.15,2013-02-18 20:00:00,
2013-02-18 14:05:00,28.7,21.5,29.75,NW,321,13.0,17.0,74,0.00,,,0.01,267,Wunderground v.1.15,2013-02-18 20:05:00,
2013-02-18 14:10:00,28.9,20.7,29.75,NW,310,12.0,13.0,71,0.00,,,0.01,283,Wunderground v.1.15,2013-02-18 20:10:00,
2013-02-18 14:15:00,29.0,20.1,29.75,WNW,293,12.0,13.0,69,0.00,,,0.01,251,Wunderground v.1.15,2013-02-18 20:15:00,
2013-02-18 14:24:00,29.6,20.7,29.75,NW,317,10.0,12.0,69,0.00,,,0.01,237,Wunderground v.1.15,2013-02-18 20:24:00,
2013-02-18 14:29:00,29.9,20.6,29.76,NW,317,10.0,12.0,68,0.00,,,0.01,213,Wunderground v.1.15,2013-02-18 20:29:00,
2013-02-18 14:35:00,29.4,20.1,29.76,NNW,347,10.0,12.0,68,0.00,,,0.01,207,Wunderground v.1.15,2013-02-18 20:35:00,
2013-02-18 14:45:00,28.9,19.7,29.77,NNW,346,12.0,18.0,68,0.00,,,0.01,227,Wunderground v.1.15,2013-02-18 20:45:00,
2013-02-18 14:55:00,29.0,19.8,29.77,NW,314,10.0,13.0,68,0.00,,,0.01,144,Wunderground v.1.15,2013-02-18 20:55:00,
2013-02-18 15:05:00,28.4,19.5,29.77,NW,323,12.0,14.0,69,0.00,,,0.01,171,Wunderground v.1.15,2013-02-18 21:05:00,
2013-02-18 15:14:00,28.5,18.9,29.77,NW,313,13.0,18.0,67,0.00,,,0.01,543,Wunderground v.1.15,2013-02-18 21:14:00,
2013-02-18 15:20:00,28.8,18.1,29.77,NW,304,13.0,13.0,64,0.00,,,0.01,255,Wunderground v.1.15,2013-02-18 21:20:00,
2013-02-18 15:29:00,28.6,17.2,29.77,NW,305,14.0,14.0,62,0.00,,,0.01,411,Wunderground v.1.15,2013-02-18 21:29:00,
2013-02-18 15:34:00,28.6,17.6,29.77,NW,313,14.0,14.0,63,0.00,,,0.01,90,Wunderground v.1.15,2013-02-18 21:34:00,
2013-02-18 15:45:00,28.9,17.5,29.78,NW,309,15.0,20.0,62,0.00,,,0.01,408,Wunderground v.1.15,2013-02-18 21:45:00,
2013-02-18 15:55:00,29.1,17.3,29.78,NW,321,14.0,19.0,61,0.00,,,0.01,97,Wunderground v.1.15,2013-02-18 21:55:00,
2013-02-18 16:00:00,29.0,17.2,29.78,North,360,13.0,13.0,61,0.00,,,0.01,125,Wunderground v.1.15,2013-02-18 22:00:00,
2013-02-18 16:10:00,29.2,17.4,29.78,North,11,13.0,13.0,61,0.00,,,0.01,360,Wunderground v.1.15,2013-02-18 22:10:00,
2013-02-18 16:15:00,29.4,17.6,29.79,WNW,295,12.0,13.0,61,0.00,,,0.01,290,Wunderground v.1.15,2013-02-18 22:15:00,
2013-02-18 16:25:00,29.4,17.6,29.79,NW,305,11.0,12.0,61,0.00,,,0.01,274,Wunderground v.1.15,2013-02-18 22:25:00,
2013-02-18 16:35:00,29.2,17.0,29.79,NW,313,11.0,17.0,60,0.00,,,0.01,229,Wunderground v.1.15,2013-02-18 22:35:00,
2013-02-18 16:45:00,29.0,17.2,29.81,NNW,333,13.0,13.0,61,0.00,,,0.01,211,Wunderground v.1.15,2013-02-18 22:45:00,
2013-02-18 16:50:00,28.9,17.1,29.81,NW,306,12.0,16.0,61,0.00,,,0.01,199,Wunderground v.1.15,2013-02-18 22:50:00,
2013-02-18 17:00:00,28.8,17.0,29.81,NW,320,13.0,13.0,61,0.00,,,0.01,81,Wunderground v.1.15,2013-02-18 23:00:00,
2013-02-18 17:10:00,28.6,16.8,29.81,WNW,292,13.0,14.0,61,0.00,,,0.01,137,Wunderground v.1.15,2013-02-18 23:10:00,
2013-02-18 17:19:00,28.5,16.7,29.83,NNW,327,13.0,16.0,61,0.00,,,0.01,77,Wunderground v.1.15,2013-02-18 23:19:00,
2013-02-18 17:25:00,28.4,17.4,29.83,NNW,330,13.0,16.0,63,0.00,,,0.01,72,Wunderground v.1.15,2013-02-18 23:25:00,
2013-02-18 17:30:00,28.4,17.4,29.83,NNW,338,12.0,12.0,63,0.00,,,0.01,37,Wunderground v.1.15,2013-02-18 23:30:00,
2013-02-18 17:40:00,28.1,17.1,29.83,NW,313,13.0,13.0,63,0.00,,,0.01,18,Wunderground v.1.15,2013-02-18 23:40:00,
2013-02-18 17:45:00,27.9,17.3,29.84,NNW,340,13.0,13.0,64,0.00,,,0.01,14,Wunderground v.1.15,2013-02-18 23:45:00,
2013-02-18 17:50:00,27.8,17.2,29.84,NW,324,12.0,16.0,64,0.00,,,0.01,11,Wunderground v.1.15,2013-02-18 23:50:00,
2013-02-18 18:00:00,27.5,17.3,29.84,NW,311,12.0,12.0,65,0.00,,,0.01,5,Wunderground v.1.15,2013-02-19 00:00:00,
2013-02-18 18:09:00,27.0,17.1,29.84,NW,317,11.0,14.0,66,0.00,,,0.01,0,Wunderground v.1.15,2013-02-19 00:09:00,
2013-02-18 18:20:00,26.7,17.2,29.85,NW,320,9.0,9.0,67,0.00,,,0.01,0,Wunderground v.1.15,2013-02-19 00:20:00,
2013-02-18 18:30:00,26.4,16.9,29.86,NW,321,9.0,9.0,67,0.00,,,0.01,0,Wunderground v.1.15,2013-02-19 00:30:00,
2013-02-18 18:35:00,26.2,17.1,29.86,NW,317,9.0,9.0,68,0.00,,,0.01,0,Wunderground v.1.15,2013-02-19 00:35:00,
2013-02-18 18:40:00,26.0,16.9,29.86,NW,323,8.0,13.0,68,0.00,,,0.01,0,Wunderground v.1.15,2013-02-19 00:40:00,
2013-02-18 18:50:00,25.9,17.1,29.87,North,360,8.0,8.0,69,0.00,,,0.01,0,Wunderground v.1.15,2013-02-19 00:50:00,
2013-02-18 19:00:00,25.7,16.6,29.88,NNW,329,9.0,9.0,68,0.00,,,0.01,0,Wunderground v.1.15,2013-02-19 01:00:00,
2013-02-18 19:09:00,25.7,16.6,29.88,NW,324,8.0,8.0,68,0.00,,,0.01,0,Wunderground v.1.15,2013-02-19 01:09:00,
2013-02-18 19:19:00,25.6,16.5,29.89,NW,310,9.0,25.0,68,0.00,,,0.01,0,Wunderground v.1.15,2013-02-19 01:19:00,
2013-02-18 19:25:00,25.6,16.5,29.89,NW,319,9.0,25.0,68,0.00,,,0.01,0,Wunderground v.1.15,2013-02-19 01:25:00,
2013-02-18 19:35:00,25.4,16.6,29.90,NW,322,8.0,14.0,69,0.00,,,0.01,0,Wunderground v.1.15,2013-02-19 01:35:00,
2013-02-18 19:44:00,25.1,16.4,29.90,WNW,303,9.0,25.0,69,0.00,,,0.01,0,Wunderground v.1.15,2013-02-19 01:44:00,
2013-02-18 19:54:00,24.4,15.3,29.90,NW,311,10.0,25.0,68,0.00,,,0.01,0,Wunderground v.1.15,2013-02-19 01:54:00,
2013-02-18 20:00:00,24.2,15.2,29.91,NW,325,9.0,25.0,68,0.00,,,0.01,0,Wunderground v.1.15,2013-02-19 02:00:00,
2013-02-18 20:10:00,23.8,15.1,29.91,NW,306,8.0,8.0,69,0.00,,,0.01,0,Wunderground v.1.15,2013-02-19 02:10:00,
2013-02-18 20:19:00,23.5,15.1,29.92,NW,315,9.0,25.0,70,0.00,,,0.01,0,Wunderground v.1.15,2013-02-19 02:19:00,
2013-02-18 20:24:00,23.3,15.0,29.92,NW,315,9.0,25.0,70,0.00,,,0.01,0,Wunderground v.1.15,2013-02-19 02:24:00,
2013-02-18 20:30:00,23.1,15.1,29.92,NNW,333,8.0,25.0,71,0.00,,,0.01,0,Wunderground v.1.15,2013-02-19 02:30:00,
2013-02-18 20:40:00,22.8,14.8,29.92,NNW,344,6.0,25.0,71,0.00,,,0.01,0,Wunderground v.1.15,2013-02-19 02:40:00,
2013-02-18 20:45:00,22.6,14.6,29.93,NW,315,6.0,25.0,71,0.00,,,0.01,0,Wunderground v.1.15,2013-02-19 02:45:00,
2013-02-18 20:55:00,22.4,14.4,29.93,NNW,331,8.0,25.0,71,0.00,,,0.01,0,Wunderground v.1.15,2013-02-19 02:55:00,
2013-02-18 21:04:00,22.2,14.2,29.93,NW,325,7.0,25.0,71,0.00,,,0.01,0,Wunderground v.1.15,2013-02-19 03:04:00,
2013-02-18 21:15:00,22.0,14.0,29.94,NW,306,8.0,25.0,71,0.00,,,0.01,0,Wunderground v.1.15,2013-02-19 03:15:00,
2013-02-18 21:20:00,21.9,13.9,29.94,NW,306,9.0,9.0,71,0.00,,,0.01,0,Wunderground v.1.15,2013-02-19 03:20:00,
2013-02-18 21:30:00,21.8,13.5,29.94,NW,304,10.0,25.0,70,0.00,,,0.01,0,Wunderground v.1.15,2013-02-19 03:30:00,
2013-02-18 21:40:00,21.7,13.7,29.94,NW,320,8.0,8.0,71,0.00,,,0.01,0,Wunderground v.1.15,2013-02-19 03:40:00,
2013-02-18 21:50:00,21.5,13.5,29.95,NNW,343,7.0,7.0,71,0.00,,,0.01,0,Wunderground v.1.15,2013-02-19 03:50:00,
2013-02-18 21:59:00,21.4,13.5,29.96,NNW,340,7.0,25.0,71,0.00,,,0.01,0,Wunderground v.1.15,2013-02-19 03:59:00,
2013-02-18 22:09:00,21.3,13.7,29.96,NW,311,7.0,7.0,72,0.00,,,0.01,0,Wunderground v.1.15,2013-02-19 04:09:00,
2013-02-18 22:15:00,21.3,13.7,29.97,NW,309,8.0,8.0,72,0.00,,,0.01,0,Wunderground v.1.15,2013-02-19 04:15:00,
2013-02-18 22:25:00,21.2,13.9,29.97,NW,309,6.0,25.0,73,0.00,,,0.01,0,Wunderground v.1.15,2013-02-19 04:25:00,
2013-02-18 22:35:00,21.2,13.9,29.98,NW,319,7.0,25.0,73,0.00,,,0.01,0,Wunderground v.1.15,2013-02-19 04:35:00,
2013-02-18 22:40:00,21.2,13.9,29.98,NW,318,8.0,8.0,73,0.00,,,0.01,0,Wunderground v.1.15,2013-02-19 04:40:00,
2013-02-18 22:50:00,21.3,14.3,29.98,NW,310,8.0,9.0,74,0.00,,,0.01,0,Wunderground v.1.15,2013-02-19 04:50:00,
2013-02-18 22:59:00,21.3,14.3,29.99,NW,325,8.0,8.0,74,0.00,,,0.01,0,Wunderground v.1.15,2013-02-19 04:59:00,
2013-02-18 23:05:00,21.4,14.4,29.99,NW,305,7.0,10.0,74,0.00,,,0.01,0,Wunderground v.1.15,2013-02-19 05:05:00,
2013-02-18 23:10:00,21.5,14.8,29.99,NW,325,7.0,7.0,75,0.00,,,0.01,0,Wunderground v.1.15,2013-02-19 05:10:00,
2013-02-18 23:15:00,21.5,14.8,29.99,NW,311,7.0,9.0,75,0.00,,,0.01,0,Wunderground v.1.15,2013-02-19 05:15:00,
2013-02-18 23:25:00,21.6,14.9,29.99,NW,317,8.0,8.0,75,0.00,,,0.01,0,Wunderground v.1.15,2013-02-19 05:25:00,
2013-02-18 23:34:00,21.6,14.9,29.99,NW,325,8.0,12.0,75,0.00,,,0.01,0,Wunderground v.1.15,2013-02-19 05:34:00,
2013-02-18 23:40:00,21.7,15.0,29.99,NW,313,8.0,12.0,75,0.00,,,0.01,0,Wunderground v.1.15,2013-02-19 05:40:00,
2013-02-18 23:50:00,21.7,15.0,29.99,NNW,338,9.0,9.0,75,0.00,,,0.01,0,Wunderground v.1.15,2013-02-19 05:50:00,